Ana Sayfa
METAR-TAF:

METAR-TAF

Havaalanları :

Midland, Teksas, Amerika Birleşik Devletleri

Enlem: 31-56-52N, Boylam: 102-12-31W, yükseklik: 875 m

Güncel hava durumu gözlemi

Rapor saat 22:53 UTC de 29 dakika önce yapıldı.
Rüzgar güneydan 14 kt
Sıcaklık 38°C
Nem 24%
Basınç 1012 hPa
Görüş mesafesi: 16.1 km
8500 ft yükseklikte az bulutlu

METAR: KMAF 182253Z 19014KT 10SM FEW085 38/14 A2988 RMK AO2 PK WND 18028/2243 SLP059 T03830139

Saat: 18:22 (23:22 UTC)

Tahmin

Rapor saat 21:18 UTC de 2 saat ve 4 dakika önce yapıldı.
Ayın 18'si saat 21 UTC'den ayın 19'si saat 18 UTC'ye kadar geçerli Tahmin
Rüzgar güneydan 15 kt ve 25 kt'a kadar ani rüzgarlar
Görüş mesafesi: 10 km
8000 ft yükseklikte az bulutlu
Ayın 19'si saat 0600 UTC'den
Rüzgar güney/güneydoğudan 14 kt
Görüş mesafesi: 10 km
Açık gökyüzü

TAF: KMAF 182118Z 1821/1918 18015G25KT P6SM FEW080 FM190600 16014KT P6SM SKC

4.000'den fazla havaalanı için hava durumu gözlemleri ve tahminleri (METAR ve TAF raporları).

Kullanılabilir istasyonlar harita üzerinde sarı ve kırmızı noktalarla gösterilir.

İstasyonun adını görmek için fareyi noktanın üzerinde gezdirin.

Sonrasında hava gözlem ve tahminlerini görmek için tıklayın.

Haritayı değiştirmek için: yaklaştırmak için siyah artı işaretli yeşil düğmeye ve uzaklaştırmak için de eksi işaretli düğmeye hızla tıklayın; bitişik haritalar için yeşil okları kullanın.


METAR-TAF: